createdAt,value
2022-08-27T00:03:31.485Z,13.70
2022-08-27T00:08:34.453Z,17.30
2022-08-27T00:13:38.804Z,11.60
2022-08-27T00:18:43.176Z,11.40
2022-08-27T00:23:51.427Z,11.00
2022-08-27T00:28:54.406Z,14.50
2022-08-27T00:33:57.957Z,12.40
2022-08-27T00:39:00.949Z,14.80
2022-08-27T00:44:04.602Z,12.70
2022-08-27T00:49:18.289Z,18.10
2022-08-27T00:54:22.349Z,12.20
2022-08-27T00:59:29.432Z,14.00
2022-08-27T01:04:35.942Z,13.60
2022-08-27T01:09:40.646Z,13.00
2022-08-27T01:14:45.588Z,14.00
2022-08-27T01:19:51.145Z,17.30
2022-08-27T01:25:01.310Z,12.30
2022-08-27T01:30:07.177Z,11.40
2022-08-27T01:35:13.915Z,16.20
2022-08-27T01:40:19.029Z,14.50
2022-08-27T01:45:30.267Z,19.10
2022-08-27T01:50:36.465Z,10.40
2022-08-27T01:55:40.727Z,11.30
2022-08-27T02:00:56.551Z,13.10
2022-08-27T02:06:03.419Z,13.80
2022-08-27T02:11:08.523Z,10.50
2022-08-27T02:16:13.539Z,11.20
2022-08-27T02:21:18.550Z,11.20
2022-08-27T02:26:22.333Z,10.40
2022-08-27T02:31:25.572Z,13.10
2022-08-27T02:36:28.745Z,12.40
2022-08-27T02:41:31.867Z,13.80
2022-08-27T02:46:34.793Z,11.60
2022-08-27T02:51:37.937Z,9.70
2022-08-27T02:56:42.012Z,13.40
2022-08-27T03:01:45.124Z,17.10
2022-08-27T03:06:48.191Z,13.30
2022-08-27T03:11:51.172Z,9.90
2022-08-27T03:16:55.257Z,15.40
2022-08-27T03:21:58.168Z,13.00
2022-08-27T03:27:01.083Z,12.30
2022-08-27T03:32:07.023Z,10.10
2022-08-27T03:37:10.044Z,9.50
2022-08-27T03:42:12.911Z,13.10
2022-08-27T03:47:16.173Z,11.10
2022-08-27T03:52:19.612Z,12.60
2022-08-27T03:57:22.724Z,16.30
2022-08-27T04:02:26.390Z,10.80
2022-08-27T04:07:29.570Z,9.40
2022-08-27T04:12:32.568Z,10.00
2022-08-27T04:17:35.753Z,10.10
2022-08-27T04:22:39.610Z,12.00
2022-08-27T04:27:43.593Z,11.90
2022-08-27T04:32:46.539Z,8.90
2022-08-27T04:37:49.642Z,13.20
2022-08-27T04:42:52.943Z,12.00
2022-08-27T04:47:56.153Z,12.10
2022-08-27T04:52:59.076Z,10.10
2022-08-27T04:58:02.718Z,13.70
2022-08-27T05:03:05.840Z,11.80
2022-08-27T05:08:10.800Z,8.50
2022-08-27T05:13:14.379Z,10.80
2022-08-27T05:18:17.472Z,10.20
2022-08-27T05:23:20.974Z,11.40
2022-08-27T05:28:28.062Z,13.60
2022-08-27T05:33:31.320Z,14.10
2022-08-27T05:38:35.133Z,11.70
2022-08-27T05:43:40.409Z,13.70
2022-08-27T05:48:43.543Z,14.60
2022-08-27T05:53:47.081Z,13.50
2022-08-27T05:59:09.083Z,17.80
2022-08-27T06:04:18.146Z,13.20
2022-08-27T06:09:26.443Z,12.80
2022-08-27T06:14:30.753Z,14.00
2022-08-27T06:19:34.957Z,15.00
2022-08-27T06:24:40.273Z,19.80
2022-08-27T06:34:47.527Z,14.00
2022-08-27T06:39:51.771Z,16.30
2022-08-27T06:44:56.922Z,17.20
2022-08-27T06:50:00.209Z,16.30
2022-08-27T06:55:03.980Z,16.80
2022-08-27T07:00:09.973Z,19.70
2022-08-27T07:05:12.952Z,16.20
2022-08-27T07:10:16.014Z,16.80
2022-08-27T07:15:19.203Z,19.50
2022-08-27T07:20:26.542Z,17.30
2022-08-27T07:25:32.279Z,20.50
2022-08-27T07:30:37.723Z,20.20
2022-08-27T07:35:41.045Z,20.10
2022-08-27T07:40:44.248Z,22.50
2022-08-27T07:45:48.846Z,16.20
2022-08-27T07:50:52.924Z,18.80
2022-08-27T07:55:55.987Z,14.70
2022-08-27T08:00:59.165Z,12.90
2022-08-27T08:06:09.283Z,13.10
2022-08-27T08:11:16.042Z,16.80
2022-08-27T08:16:19.682Z,16.00
2022-08-27T08:21:22.809Z,16.80
2022-08-27T08:26:25.861Z,17.90
2022-08-27T08:31:28.873Z,18.40
2022-08-27T08:36:32.809Z,23.10
2022-08-27T08:41:42.793Z,21.20
2022-08-27T08:47:17.030Z,19.10
2022-08-27T08:52:34.753Z,18.20
2022-08-27T08:58:15.478Z,21.40
2022-08-27T09:03:18.581Z,19.80
2022-08-27T09:08:40.417Z,19.40
2022-08-27T09:13:52.221Z,14.20
2022-08-27T09:18:55.636Z,17.90
2022-08-27T09:24:25.371Z,15.10
2022-08-27T09:29:30.111Z,18.60
2022-08-27T09:34:37.498Z,16.30
2022-08-27T09:39:46.234Z,20.50
2022-08-27T09:44:53.507Z,14.90
2022-08-27T09:50:07.539Z,18.00
2022-08-27T09:55:12.083Z,16.10
2022-08-27T10:00:17.326Z,15.70
2022-08-27T10:05:29.386Z,13.40
2022-08-27T10:10:57.077Z,16.50
2022-08-27T10:16:16.759Z,16.40
2022-08-27T10:21:29.291Z,13.10
2022-08-27T10:26:45.887Z,16.60
2022-08-27T10:32:22.813Z,14.30
2022-08-27T10:37:36.805Z,13.70
2022-08-27T10:43:09.599Z,13.30
2022-08-27T10:48:24.693Z,11.50
2022-08-27T10:53:34.990Z,11.30
2022-08-27T10:59:17.216Z,13.10
2022-08-27T11:04:26.135Z,10.30
2022-08-27T11:10:02.052Z,15.00
2022-08-27T11:15:21.041Z,14.80
2022-08-27T11:20:32.394Z,13.20
2022-08-27T11:26:02.691Z,10.20
2022-08-27T11:31:19.796Z,16.70
2022-08-27T11:36:45.575Z,10.10
2022-08-27T11:42:11.618Z,10.60
2022-08-27T11:47:21.638Z,9.40
2022-08-27T11:52:27.281Z,12.10
2022-08-27T11:57:36.892Z,11.90
2022-08-27T12:02:40.752Z,12.10
2022-08-27T12:07:46.239Z,14.60
2022-08-27T12:13:00.844Z,15.10
2022-08-27T12:18:20.511Z,10.20
2022-08-27T12:23:42.423Z,10.90
2022-08-27T12:28:45.596Z,12.70
2022-08-27T12:33:51.698Z,9.20
2022-08-27T12:38:58.192Z,10.90
2022-08-27T12:44:11.351Z,10.40
2022-08-27T12:49:38.498Z,12.00
2022-08-27T12:54:52.946Z,12.50
2022-08-27T13:00:15.497Z,11.10
2022-08-27T13:05:21.841Z,15.00
2022-08-27T13:10:29.522Z,8.70
2022-08-27T13:15:34.286Z,11.40
2022-08-27T13:20:40.236Z,12.00
2022-08-27T13:25:54.578Z,12.80
2022-08-27T13:30:59.482Z,11.60
2022-08-27T13:36:04.178Z,11.00
2022-08-27T13:41:22.711Z,10.30
2022-08-27T13:46:30.001Z,11.50
2022-08-27T13:51:35.773Z,7.20
2022-08-27T13:56:57.649Z,10.20
2022-08-27T14:02:12.103Z,11.30
2022-08-27T14:07:25.943Z,13.50
2022-08-27T14:17:38.437Z,12.20
2022-08-27T14:22:42.457Z,8.70
2022-08-27T14:33:00.583Z,9.20
2022-08-27T14:38:18.745Z,13.10
2022-08-27T14:43:22.984Z,13.70
2022-08-27T14:48:30.654Z,10.40
2022-08-27T14:53:33.566Z,10.40
2022-08-27T14:58:36.747Z,10.50
2022-08-27T15:03:47.654Z,7.70
2022-08-27T15:08:51.547Z,12.40
2022-08-27T15:13:56.333Z,15.40
2022-08-27T15:19:01.044Z,9.40
2022-08-27T15:24:08.958Z,9.60
2022-08-27T15:29:12.336Z,8.90
2022-08-27T15:34:15.530Z,8.30
2022-08-27T15:39:18.492Z,13.60
2022-08-27T15:44:21.520Z,8.90
2022-08-27T15:49:24.485Z,9.10
2022-08-27T15:54:28.130Z,12.90
2022-08-27T15:59:32.324Z,14.30
2022-08-27T16:04:35.228Z,14.50
2022-08-27T16:09:38.703Z,18.60
2022-08-27T16:14:41.585Z,16.30
2022-08-27T16:19:44.508Z,12.00
2022-08-27T16:24:47.562Z,11.10
2022-08-27T16:29:51.100Z,14.30
2022-08-27T16:34:55.902Z,12.40
2022-08-27T16:39:59.062Z,16.00
2022-08-27T16:45:02.098Z,14.90
2022-08-27T16:50:26.166Z,19.10
2022-08-27T16:55:29.580Z,10.60
2022-08-27T17:00:33.497Z,12.60
2022-08-27T17:05:36.713Z,10.10
2022-08-27T17:10:45.821Z,10.70
2022-08-27T17:15:52.910Z,11.80
2022-08-27T17:20:57.784Z,10.60
2022-08-27T17:31:04.737Z,10.10
2022-08-27T17:36:09.745Z,14.80
2022-08-27T17:41:20.084Z,12.20
2022-08-27T17:46:24.201Z,14.40
2022-08-27T17:51:28.041Z,11.90
2022-08-27T17:56:30.989Z,14.00
2022-08-27T18:01:34.537Z,11.50
2022-08-27T18:06:39.218Z,9.60
2022-08-27T18:11:43.161Z,10.90
2022-08-27T18:16:46.899Z,12.30
2022-08-27T18:21:50.660Z,13.30
2022-08-27T18:26:53.855Z,13.20
2022-08-27T18:31:57.029Z,13.50
2022-08-27T18:37:00.141Z,14.80
2022-08-27T18:42:04.086Z,11.60
2022-08-27T18:47:07.252Z,13.80
2022-08-27T18:52:12.256Z,12.00
2022-08-27T18:57:15.126Z,11.60
2022-08-27T19:02:21.050Z,16.30
2022-08-27T19:07:25.152Z,11.70
2022-08-27T19:12:28.058Z,13.80
2022-08-27T19:17:33.835Z,15.10
2022-08-27T19:22:36.840Z,13.30
2022-08-27T19:27:40.075Z,13.50
2022-08-27T19:32:43.647Z,12.20
2022-08-27T19:37:52.989Z,11.40
2022-08-27T19:42:56.419Z,15.00
2022-08-27T19:47:59.865Z,9.40
2022-08-27T19:53:02.990Z,10.90
2022-08-27T19:58:05.824Z,13.20
2022-08-27T20:03:10.072Z,8.20
2022-08-27T20:08:13.273Z,12.00
2022-08-27T20:13:18.292Z,12.30
2022-08-27T20:18:23.161Z,7.60
2022-08-27T20:23:26.049Z,10.40
2022-08-27T20:28:43.699Z,11.10
2022-08-27T20:33:46.936Z,7.90
2022-08-27T20:38:50.258Z,8.90
2022-08-27T20:43:53.233Z,8.70
2022-08-27T20:48:56.669Z,10.30
2022-08-27T20:54:01.125Z,10.50
2022-08-27T20:59:23.177Z,10.00
2022-08-27T21:04:26.549Z,10.20
2022-08-27T21:09:29.540Z,9.10
2022-08-27T21:14:33.128Z,9.80
2022-08-27T21:19:38.191Z,8.60
2022-08-27T21:24:41.111Z,11.60
2022-08-27T21:29:44.983Z,8.40
2022-08-27T21:34:48.000Z,5.90
2022-08-27T21:39:52.357Z,10.10
2022-08-27T21:44:55.408Z,6.30
2022-08-27T21:49:58.316Z,12.20
2022-08-27T21:55:01.211Z,7.90
2022-08-27T22:00:16.852Z,9.40
2022-08-27T22:05:20.471Z,11.30
2022-08-27T22:10:23.437Z,7.60
2022-08-27T22:15:26.546Z,4.90
2022-08-27T22:20:29.849Z,5.80
2022-08-27T22:25:33.262Z,8.00
2022-08-27T22:30:36.170Z,8.70
2022-08-27T22:35:39.650Z,6.60
2022-08-27T22:40:42.604Z,7.10
2022-08-27T22:45:45.712Z,7.60
2022-08-27T22:50:49.088Z,7.70
2022-08-27T22:55:52.139Z,6.10
2022-08-27T23:00:55.212Z,7.10
2022-08-27T23:05:58.369Z,8.80
2022-08-27T23:11:02.616Z,8.50
2022-08-27T23:16:06.149Z,8.50
2022-08-27T23:21:11.278Z,8.80
2022-08-27T23:26:32.678Z,12.50
2022-08-27T23:31:35.717Z,11.00
2022-08-27T23:36:38.712Z,6.70
2022-08-27T23:41:43.987Z,12.60
2022-08-27T23:51:53.725Z,6.90
2022-08-27T23:56:56.711Z,7.70
